createdAt,value
2018-06-02T00:00:13.968Z,24.61
2018-06-02T00:02:42.316Z,24.68
2018-06-02T00:05:10.697Z,24.49
2018-06-02T00:07:39.283Z,24.39
2018-06-02T00:10:07.602Z,24.70
2018-06-02T00:12:35.949Z,24.61
2018-06-02T00:15:04.515Z,24.75
2018-06-02T00:17:33.024Z,24.85
2018-06-02T00:20:01.575Z,24.53
2018-06-02T00:22:30.980Z,24.51
2018-06-02T00:24:59.295Z,24.56
2018-06-02T00:27:27.670Z,24.45
2018-06-02T00:29:56.032Z,24.46
2018-06-02T00:32:24.367Z,24.33
2018-06-02T00:34:52.795Z,24.31
2018-06-02T00:37:21.282Z,24.30
2018-06-02T00:39:49.590Z,24.36
2018-06-02T00:42:18.111Z,24.52
2018-06-02T00:44:48.108Z,24.53
2018-06-02T00:47:16.528Z,24.53
2018-06-02T00:49:44.895Z,24.50
2018-06-02T00:52:13.968Z,24.33
2018-06-02T00:54:59.848Z,24.37
2018-06-02T00:57:28.182Z,24.25
2018-06-02T00:59:56.533Z,24.16
2018-06-02T01:02:25.408Z,24.05
2018-06-02T01:04:54.521Z,23.90
2018-06-02T01:07:22.890Z,23.67
2018-06-02T01:09:52.019Z,23.73
2018-06-02T01:12:20.330Z,23.83
2018-06-02T01:14:48.636Z,24.11
2018-06-02T01:17:16.989Z,23.90
2018-06-02T01:19:45.336Z,23.92
2018-06-02T01:22:13.673Z,24.16
2018-06-02T01:24:42.119Z,23.70
2018-06-02T01:27:10.436Z,23.52
2018-06-02T01:29:38.797Z,23.55
2018-06-02T01:32:07.185Z,23.84
2018-06-02T01:34:35.493Z,23.88
2018-06-02T01:37:03.808Z,23.92
2018-06-02T01:39:32.162Z,23.96
2018-06-02T01:42:00.496Z,23.88
2018-06-02T01:44:28.843Z,23.85
2018-06-02T01:46:57.657Z,23.81
2018-06-02T01:49:25.984Z,23.81
2018-06-02T01:51:54.292Z,23.65
2018-06-02T01:54:22.662Z,23.79
2018-06-02T01:56:51.005Z,23.86
2018-06-02T01:59:20.103Z,23.61
2018-06-02T02:01:49.204Z,23.69
2018-06-02T02:04:17.551Z,23.80
2018-06-02T02:06:45.860Z,23.72
2018-06-02T02:09:15.445Z,23.69
2018-06-02T02:11:43.803Z,23.11
2018-06-02T02:14:12.147Z,23.04
2018-06-02T02:16:40.499Z,23.13
2018-06-02T02:19:08.835Z,22.76
2018-06-02T02:21:37.175Z,22.86
2018-06-02T02:24:05.515Z,23.04
2018-06-02T02:26:34.605Z,23.09
2018-06-02T02:29:02.971Z,23.16
2018-06-02T02:31:31.787Z,22.90
2018-06-02T02:34:00.903Z,22.82
2018-06-02T02:36:29.218Z,22.68
2018-06-02T02:38:57.586Z,22.81
2018-06-02T02:41:25.891Z,22.85
2018-06-02T02:43:54.286Z,23.06
2018-06-02T02:46:22.670Z,23.25
2018-06-02T02:48:51.757Z,23.23
2018-06-02T02:51:20.084Z,23.24
2018-06-02T02:53:49.151Z,23.35
2018-06-02T02:56:17.485Z,23.06
2018-06-02T02:58:46.202Z,23.06
2018-06-02T03:01:15.339Z,23.14
2018-06-02T03:03:43.672Z,23.25
2018-06-02T03:06:11.975Z,22.93
2018-06-02T03:08:40.315Z,22.91
2018-06-02T03:11:08.639Z,22.97
2018-06-02T03:13:36.977Z,22.97
2018-06-02T03:16:05.882Z,22.69
2018-06-02T03:18:34.211Z,22.72
2018-06-02T03:21:02.559Z,22.98
2018-06-02T03:23:30.936Z,22.64
2018-06-02T03:25:59.291Z,22.77
2018-06-02T03:28:27.626Z,22.83
2018-06-02T03:30:55.980Z,22.80
2018-06-02T03:33:24.322Z,22.89
2018-06-02T03:35:52.665Z,22.91
2018-06-02T03:38:21.281Z,22.83
2018-06-02T03:40:49.634Z,22.87
2018-06-02T03:43:17.952Z,22.87
2018-06-02T03:45:46.330Z,23.00
2018-06-02T03:48:15.431Z,23.19
2018-06-02T03:50:44.524Z,23.26
2018-06-02T03:53:12.945Z,23.15
2018-06-02T03:55:41.277Z,23.00
2018-06-02T03:58:09.632Z,23.10
2018-06-02T04:00:38.535Z,23.24
2018-06-02T04:03:06.896Z,23.10
2018-06-02T04:05:35.988Z,23.09
2018-06-02T04:08:04.337Z,23.04
2018-06-02T04:10:32.696Z,23.06
2018-06-02T04:13:01.027Z,23.20
2018-06-02T04:15:30.155Z,23.13
2018-06-02T04:17:58.503Z,23.37
2018-06-02T04:20:26.909Z,23.31
2018-06-02T04:22:55.643Z,23.13
2018-06-02T04:25:24.023Z,23.13
2018-06-02T04:27:52.351Z,23.30
2018-06-02T04:30:20.677Z,23.28
2018-06-02T04:32:49.004Z,23.28
2018-06-02T04:35:17.330Z,23.43
2018-06-02T04:37:46.442Z,23.47
2018-06-02T04:40:14.786Z,23.09
2018-06-02T04:42:43.125Z,23.43
2018-06-02T04:45:11.579Z,23.63
2018-06-02T04:47:39.916Z,23.56
2018-06-02T04:50:08.237Z,23.39
2018-06-02T04:52:36.585Z,23.44
2018-06-02T04:55:05.711Z,23.66
2018-06-02T04:57:34.046Z,23.70
2018-06-02T05:00:03.180Z,23.59
2018-06-02T05:02:31.896Z,23.80
2018-06-02T05:05:00.999Z,23.73
2018-06-02T05:07:30.630Z,23.68
2018-06-02T05:09:59.007Z,23.83
2018-06-02T05:12:27.332Z,23.83
2018-06-02T05:14:55.704Z,23.69
2018-06-02T05:17:24.032Z,23.87
2018-06-02T05:19:52.352Z,23.77
2018-06-02T05:22:20.756Z,23.88
2018-06-02T05:24:49.091Z,23.56
2018-06-02T05:27:18.182Z,23.56
2018-06-02T05:29:47.411Z,23.31
2018-06-02T05:32:15.768Z,23.65
2018-06-02T05:34:44.880Z,23.56
2018-06-02T05:37:13.287Z,23.53
2018-06-02T05:39:41.613Z,23.53
2018-06-02T05:42:10.748Z,23.43
2018-06-02T05:44:39.147Z,23.83
2018-06-02T05:47:07.535Z,24.03
2018-06-02T05:49:35.895Z,23.83
2018-06-02T05:52:04.389Z,23.68
2018-06-02T05:54:32.780Z,23.78
2018-06-02T05:57:01.101Z,23.88
2018-06-02T05:59:30.244Z,23.85
2018-06-02T06:01:58.586Z,23.89
2018-06-02T06:04:26.924Z,23.97
2018-06-02T06:06:55.268Z,23.62
2018-06-02T06:09:23.592Z,23.78
2018-06-02T06:11:51.913Z,23.69
2018-06-02T06:14:20.360Z,23.93
2018-06-02T06:16:49.486Z,23.91
2018-06-02T06:19:18.594Z,23.96
2018-06-02T06:21:46.958Z,24.09
2018-06-02T06:24:15.311Z,24.06
2018-06-02T06:26:44.407Z,24.09
2018-06-02T06:29:13.526Z,23.57
2018-06-02T06:31:42.636Z,23.58
2018-06-02T06:34:11.032Z,23.60
2018-06-02T06:36:39.555Z,23.47
2018-06-02T06:39:07.902Z,23.62
2018-06-02T06:41:36.211Z,23.77
2018-06-02T06:44:04.580Z,23.75
2018-06-02T06:46:33.756Z,23.58
2018-06-02T06:49:02.068Z,23.67
2018-06-02T06:51:30.450Z,23.58
2018-06-02T06:53:59.548Z,23.66
2018-06-02T06:56:28.672Z,23.65
2018-06-02T06:58:57.430Z,23.42
2018-06-02T07:01:25.794Z,23.41
2018-06-02T07:03:54.154Z,23.77
2018-06-02T07:06:22.525Z,23.84
2018-06-02T07:08:50.881Z,23.80
2018-06-02T07:11:19.171Z,23.80
2018-06-02T07:13:47.569Z,23.48
2018-06-02T07:16:15.949Z,23.88
2018-06-02T07:18:44.308Z,24.13
2018-06-02T07:21:12.951Z,23.93
2018-06-02T07:23:41.297Z,24.10
2018-06-02T07:26:09.659Z,24.13
2018-06-02T07:28:38.067Z,24.22
2018-06-02T07:31:06.382Z,24.42
2018-06-02T07:33:35.486Z,24.65
2018-06-02T07:36:03.861Z,24.54
2018-06-02T07:38:32.212Z,24.53
2018-06-02T07:41:00.520Z,24.27
2018-06-02T07:43:29.311Z,24.25
2018-06-02T07:45:57.643Z,24.24
2018-06-02T07:48:25.987Z,24.24
2018-06-02T07:50:54.365Z,24.15
2018-06-02T07:53:22.723Z,24.36
2018-06-02T07:55:51.127Z,24.52
2018-06-02T07:58:19.505Z,24.82
2018-06-02T08:00:47.836Z,24.79
2018-06-02T08:03:16.196Z,24.68
2018-06-02T08:05:44.830Z,24.56
2018-06-02T08:08:13.159Z,24.04
2018-06-02T08:10:41.510Z,23.97
2018-06-02T08:13:10.608Z,24.38
2018-06-02T08:15:38.968Z,24.53
2018-06-02T08:18:07.311Z,24.43
2018-06-02T08:20:35.747Z,24.59
2018-06-02T08:23:04.101Z,24.62
2018-06-02T08:25:32.431Z,25.07
2018-06-02T08:28:00.981Z,25.57
2018-06-02T08:30:29.292Z,25.48
2018-06-02T08:32:57.654Z,25.28
2018-06-02T08:35:26.021Z,26.07
2018-06-02T08:37:54.356Z,25.98
2018-06-02T08:40:23.423Z,25.48
2018-06-02T08:42:51.764Z,25.65
2018-06-02T08:45:20.093Z,25.55
2018-06-02T08:47:48.424Z,25.42
2018-06-02T08:50:17.077Z,25.66
2018-06-02T08:52:45.405Z,24.78
2018-06-02T08:55:13.755Z,24.68
2018-06-02T08:57:42.141Z,25.30
2018-06-02T09:00:10.480Z,25.27
2018-06-02T09:02:39.599Z,24.99
2018-06-02T09:05:07.990Z,25.44
2018-06-02T09:07:36.339Z,25.43
2018-06-02T09:10:05.465Z,25.23
2018-06-02T09:12:34.218Z,25.16
2018-06-02T09:15:02.627Z,25.07
2018-06-02T09:17:30.996Z,24.92
2018-06-02T09:19:59.359Z,24.61
2018-06-02T09:22:28.492Z,24.88
2018-06-02T09:24:56.827Z,24.76
2018-06-02T09:27:25.941Z,24.73
2018-06-02T09:29:55.025Z,24.74
2018-06-02T09:32:24.118Z,24.30
2018-06-02T09:34:53.008Z,24.18
2018-06-02T09:37:21.367Z,24.32
2018-06-02T09:39:49.792Z,24.40
2018-06-02T09:42:18.187Z,24.45
2018-06-02T09:44:46.577Z,24.45
2018-06-02T09:47:14.888Z,24.66
2018-06-02T09:49:43.274Z,24.43
2018-06-02T09:52:11.604Z,24.41
2018-06-02T09:54:39.953Z,24.63
2018-06-02T09:57:09.192Z,25.01
2018-06-02T09:59:37.526Z,25.31
2018-06-02T10:02:06.633Z,25.77
2018-06-02T10:04:35.828Z,26.01
2018-06-02T10:07:04.137Z,26.12
2018-06-02T10:09:32.476Z,26.27
2018-06-02T10:12:01.628Z,26.29
2018-06-02T10:14:30.000Z,26.48
2018-06-02T10:16:58.339Z,26.72
2018-06-02T10:19:27.837Z,26.82
2018-06-02T10:21:56.927Z,26.67
2018-06-02T10:24:25.260Z,26.78
2018-06-02T10:26:53.612Z,26.59
2018-06-02T10:29:22.010Z,25.96
2018-06-02T10:31:50.414Z,25.49
2018-06-02T10:34:18.753Z,25.32
2018-06-02T10:36:47.104Z,24.85
2018-06-02T10:39:15.491Z,25.04
2018-06-02T10:41:44.827Z,24.82
2018-06-02T10:44:13.162Z,24.57
2018-06-02T10:46:41.473Z,24.56
2018-06-02T10:49:09.831Z,24.67
2018-06-02T10:51:38.960Z,24.59
2018-06-02T10:54:07.339Z,24.74
2018-06-02T10:56:35.715Z,24.72
2018-06-02T10:59:04.036Z,24.37
2018-06-02T11:01:32.357Z,24.12
2018-06-02T11:04:01.031Z,24.46
2018-06-02T11:06:29.351Z,24.50
2018-06-02T11:08:57.688Z,24.41
2018-06-02T11:11:26.843Z,24.58
2018-06-02T11:13:55.176Z,24.43
2018-06-02T11:16:23.510Z,24.70
2018-06-02T11:18:51.880Z,25.01
2018-06-02T11:21:20.265Z,24.90
2018-06-02T11:23:48.748Z,25.03
2018-06-02T11:26:17.178Z,24.92
2018-06-02T11:28:45.519Z,24.82
2018-06-02T11:31:14.639Z,24.80
2018-06-02T11:33:43.804Z,24.94
2018-06-02T11:36:12.213Z,25.18
2018-06-02T11:38:41.314Z,25.04
2018-06-02T11:41:09.713Z,24.92
2018-06-02T11:43:38.059Z,24.72
2018-06-02T11:46:07.134Z,24.82
2018-06-02T11:48:35.769Z,24.61
2018-06-02T11:51:04.117Z,24.59
2018-06-02T11:53:33.220Z,24.73
2018-06-02T11:56:02.367Z,24.73
2018-06-02T11:58:30.707Z,25.01
2018-06-02T12:00:59.045Z,25.26
2018-06-02T12:03:27.397Z,25.21
2018-06-02T12:05:55.747Z,25.63
2018-06-02T12:08:24.128Z,25.93
2018-06-02T12:10:52.853Z,25.94
2018-06-02T12:13:21.223Z,26.10
2018-06-02T12:15:49.550Z,26.08
2018-06-02T12:18:18.695Z,26.01
2018-06-02T12:20:47.226Z,26.32
2018-06-02T12:23:15.687Z,26.30
2018-06-02T12:25:44.056Z,26.44
2018-06-02T12:28:12.443Z,26.24
2018-06-02T12:30:40.820Z,26.43
2018-06-02T12:33:09.301Z,26.59
2018-06-02T12:35:37.655Z,26.78
2018-06-02T12:38:06.018Z,26.44
2018-06-02T12:40:34.492Z,26.36
2018-06-02T12:43:02.904Z,26.44
2018-06-02T12:45:31.230Z,26.20
2018-06-02T12:47:59.576Z,26.06
2018-06-02T12:50:27.918Z,26.14
2018-06-02T12:52:56.233Z,26.32
2018-06-02T12:55:24.916Z,26.35
2018-06-02T12:57:53.301Z,25.98
2018-06-02T13:00:21.766Z,25.59
2018-06-02T13:02:50.112Z,25.44
2018-06-02T13:05:18.480Z,25.65
2018-06-02T13:07:46.795Z,25.64
2018-06-02T13:10:15.152Z,25.51
2018-06-02T13:12:43.512Z,25.59
2018-06-02T13:15:17.950Z,25.77
2018-06-02T13:17:46.300Z,25.64
2018-06-02T13:20:15.383Z,25.80
2018-06-02T13:22:43.741Z,25.75
2018-06-02T13:25:12.108Z,26.05
2018-06-02T13:27:40.426Z,26.21
2018-06-02T13:30:08.801Z,26.21
2018-06-02T13:32:37.151Z,26.17
2018-06-02T13:35:05.500Z,25.85
2018-06-02T13:37:34.126Z,25.93
2018-06-02T13:40:03.265Z,26.31
2018-06-02T13:42:32.355Z,26.65
2018-06-02T13:45:01.503Z,26.83
2018-06-02T13:47:29.850Z,26.87
2018-06-02T13:49:58.180Z,26.74
2018-06-02T13:52:26.559Z,26.74
2018-06-02T13:54:54.889Z,26.62
2018-06-02T13:57:23.223Z,26.76
2018-06-02T13:59:51.740Z,26.53
2018-06-02T14:02:20.838Z,26.41
2018-06-02T14:04:49.435Z,26.36
2018-06-02T14:07:17.777Z,26.38
2018-06-02T14:09:46.114Z,26.23
2018-06-02T14:12:14.457Z,26.19
2018-06-02T14:14:42.816Z,25.96
2018-06-02T14:17:11.955Z,25.86
2018-06-02T14:19:40.287Z,25.65
2018-06-02T14:22:08.847Z,25.70
2018-06-02T14:24:37.177Z,25.81
2018-06-02T14:27:06.285Z,25.46
2018-06-02T14:29:34.654Z,25.37
2018-06-02T14:32:03.027Z,25.14
2018-06-02T14:34:32.112Z,25.19
2018-06-02T14:37:01.233Z,24.97
2018-06-02T14:39:29.563Z,24.75
2018-06-02T14:41:57.883Z,24.74
2018-06-02T14:44:26.304Z,24.69
2018-06-02T14:46:54.664Z,24.80
2018-06-02T14:49:23.081Z,24.86
2018-06-02T14:51:51.388Z,25.08
2018-06-02T14:54:20.594Z,25.35
2018-06-02T14:56:48.925Z,25.41
2018-06-02T14:59:17.287Z,25.26
2018-06-02T15:01:45.613Z,25.35
2018-06-02T15:04:14.718Z,25.31
2018-06-02T15:06:44.076Z,25.32
2018-06-02T15:09:12.423Z,25.11
2018-06-02T15:11:40.779Z,25.16
2018-06-02T15:14:09.908Z,25.07
2018-06-02T15:16:38.225Z,25.16
2018-06-02T15:19:06.561Z,24.99
2018-06-02T15:21:34.922Z,24.81
2018-06-02T15:24:04.026Z,24.81
2018-06-02T15:26:32.371Z,24.65
2018-06-02T15:29:01.040Z,24.88
2018-06-02T15:31:29.394Z,24.98
2018-06-02T15:33:57.744Z,25.02
2018-06-02T15:36:26.118Z,25.15
2018-06-02T15:38:54.459Z,25.23
2018-06-02T15:41:22.807Z,24.97
2018-06-02T15:43:51.163Z,25.00
2018-06-02T15:46:19.491Z,24.91
2018-06-02T15:48:47.804Z,24.90
2018-06-02T15:51:17.020Z,24.91
2018-06-02T15:53:45.348Z,24.82
2018-06-02T15:56:13.657Z,24.98
2018-06-02T15:58:42.809Z,25.02
2018-06-02T16:01:11.165Z,24.90
2018-06-02T16:03:39.511Z,25.06
2018-06-02T16:06:08.661Z,25.20
2018-06-02T16:08:37.015Z,24.93
2018-06-02T16:11:05.436Z,24.67
2018-06-02T16:13:34.173Z,24.69
2018-06-02T16:16:02.497Z,24.72
2018-06-02T16:18:30.846Z,24.77
2018-06-02T16:20:59.231Z,24.46
2018-06-02T16:23:27.573Z,24.75
2018-06-02T16:25:56.696Z,24.86
2018-06-02T16:28:25.081Z,25.11
2018-06-02T16:30:53.429Z,24.93
2018-06-02T16:33:22.506Z,24.89
2018-06-02T16:35:51.812Z,24.79
2018-06-02T16:38:20.927Z,24.86
2018-06-02T16:40:50.048Z,24.73
2018-06-02T16:43:18.404Z,24.58
2018-06-02T16:45:46.754Z,24.34
2018-06-02T16:48:15.159Z,24.34
2018-06-02T16:50:43.515Z,24.22
2018-06-02T16:53:12.643Z,24.31
2018-06-02T16:55:40.949Z,24.28
2018-06-02T16:58:09.753Z,24.41
2018-06-02T17:00:38.146Z,24.43
2018-06-02T17:03:06.480Z,24.57
2018-06-02T17:05:34.840Z,24.47
2018-06-02T17:08:03.180Z,24.33
2018-06-02T17:10:31.535Z,24.38
2018-06-02T17:12:59.945Z,24.20
2018-06-02T17:15:28.319Z,23.94
2018-06-02T17:17:56.806Z,24.07
2018-06-02T17:20:25.276Z,24.17
2018-06-02T17:22:53.667Z,24.17
2018-06-02T17:25:22.080Z,24.05
2018-06-02T17:27:50.491Z,23.93
2018-06-02T17:30:18.917Z,23.94
2018-06-02T17:32:47.300Z,23.95
2018-06-02T17:35:16.454Z,23.89
2018-06-02T17:37:44.951Z,23.77
2018-06-02T17:40:13.329Z,23.96
2018-06-02T17:42:41.844Z,24.00
2018-06-02T17:45:11.112Z,23.69
2018-06-02T17:47:39.545Z,23.70
2018-06-02T17:50:07.994Z,23.73
2018-06-02T17:52:36.313Z,23.63
2018-06-02T17:55:04.748Z,23.66
2018-06-02T17:57:33.220Z,23.76
2018-06-02T18:00:01.723Z,24.06
2018-06-02T18:02:30.969Z,23.89
2018-06-02T18:04:59.567Z,23.97
2018-06-02T18:07:27.973Z,23.81
2018-06-02T18:09:56.467Z,23.98
2018-06-02T18:12:25.764Z,23.96
2018-06-02T18:14:54.135Z,23.99
2018-06-02T18:17:22.487Z,24.03
2018-06-02T18:19:50.837Z,24.00
2018-06-02T18:22:19.353Z,23.85
2018-06-02T18:24:47.779Z,23.97
2018-06-02T18:27:16.742Z,23.83
2018-06-02T18:29:45.134Z,23.78
2018-06-02T18:32:13.612Z,23.81
2018-06-02T18:34:41.955Z,23.80
2018-06-02T18:37:10.492Z,23.63
2018-06-02T18:39:39.671Z,23.74
2018-06-02T18:42:08.080Z,23.98
2018-06-02T18:44:37.260Z,23.81
2018-06-02T18:47:05.753Z,23.77
2018-06-02T18:49:35.017Z,23.85
2018-06-02T18:52:03.436Z,23.95
2018-06-02T18:54:31.806Z,24.10
2018-06-02T18:57:01.063Z,23.98
2018-06-02T18:59:29.478Z,24.02
2018-06-02T19:01:57.878Z,24.12
2018-06-02T19:04:27.016Z,24.09
2018-06-02T19:06:55.377Z,23.88
2018-06-02T19:09:23.723Z,24.00
2018-06-02T19:11:53.331Z,24.04
2018-06-02T19:14:22.451Z,23.70
2018-06-02T19:16:50.802Z,23.68
2018-06-02T19:19:19.207Z,23.67
2018-06-02T19:21:47.540Z,23.66
2018-06-02T19:24:15.954Z,23.40
2018-06-02T19:26:45.065Z,23.43
2018-06-02T19:29:13.402Z,23.44
2018-06-02T19:31:41.749Z,23.34
2018-06-02T19:34:10.363Z,23.20
2018-06-02T19:36:38.710Z,23.30
2018-06-02T19:39:07.053Z,23.43
2018-06-02T19:41:36.195Z,23.57
2018-06-02T19:44:04.529Z,23.44
2018-06-02T19:46:32.872Z,23.41
2018-06-02T19:49:01.245Z,23.55
2018-06-02T19:51:29.606Z,23.48
2018-06-02T19:53:57.946Z,23.39
2018-06-02T19:56:27.134Z,23.27
2018-06-02T19:58:55.488Z,23.09
2018-06-02T20:01:23.865Z,23.18
2018-06-02T20:03:52.273Z,23.17
2018-06-02T20:06:56.871Z,22.65
2018-06-02T20:09:26.380Z,22.84
2018-06-02T20:11:55.711Z,22.88
2018-06-02T20:14:25.035Z,22.90
2018-06-02T20:16:54.461Z,22.76
2018-06-02T20:19:23.816Z,22.86
2018-06-02T20:21:53.112Z,22.85
2018-06-02T20:24:22.455Z,22.77
2018-06-02T20:26:51.782Z,22.76
2018-06-02T20:29:21.301Z,22.87
2018-06-02T20:31:50.809Z,22.66
2018-06-02T20:34:20.117Z,22.68
2018-06-02T20:36:49.467Z,22.74
2018-06-02T20:39:19.039Z,22.92
2018-06-02T20:41:48.370Z,22.88
2018-06-02T20:44:17.738Z,22.91
2018-06-02T20:46:47.126Z,22.88
2018-06-02T20:49:16.528Z,22.94
2018-06-02T20:51:45.876Z,22.92
2018-06-02T20:54:15.263Z,22.73
2018-06-02T20:56:44.760Z,22.92
2018-06-02T20:59:14.130Z,22.87
2018-06-02T21:01:43.746Z,22.88
2018-06-02T21:04:13.301Z,22.92
2018-06-02T21:06:42.597Z,22.71
2018-06-02T21:09:12.049Z,22.98
2018-06-02T21:11:41.530Z,22.85
2018-06-02T21:14:10.961Z,22.71
2018-06-02T21:16:40.362Z,22.94
2018-06-02T21:19:09.804Z,22.99
2018-06-02T21:21:39.430Z,22.82
2018-06-02T21:24:08.928Z,22.92
2018-06-02T21:26:38.393Z,22.98
2018-06-02T21:29:07.844Z,22.83
2018-06-02T21:31:37.185Z,23.04
2018-06-02T21:34:06.669Z,23.11
2018-06-02T21:36:36.022Z,23.16
2018-06-02T21:39:06.861Z,23.06
2018-06-02T21:41:36.228Z,23.05
2018-06-02T21:44:05.559Z,23.00
2018-06-02T21:46:35.177Z,22.85
2018-06-02T21:49:04.474Z,22.97
2018-06-02T21:51:33.772Z,22.93
2018-06-02T21:54:03.095Z,22.83
2018-06-02T21:56:32.146Z,22.88
2018-06-02T21:59:01.442Z,23.01
2018-06-02T22:01:30.777Z,22.96
2018-06-02T22:04:00.206Z,22.87
2018-06-02T22:06:29.515Z,22.97
2018-06-02T22:08:59.424Z,22.94
2018-06-02T22:11:28.822Z,22.94
2018-06-02T22:13:58.219Z,22.85
2018-06-02T22:16:27.604Z,22.95
2018-06-02T22:18:56.957Z,23.02
2018-06-02T22:21:26.364Z,22.94
2018-06-02T22:23:55.723Z,22.93
2018-06-02T22:26:25.072Z,22.90
2018-06-02T22:28:54.400Z,22.77
2018-06-02T22:31:23.944Z,22.83
2018-06-02T22:33:53.301Z,22.86
2018-06-02T22:36:22.598Z,22.86
2018-06-02T22:38:51.936Z,22.77
2018-06-02T22:41:21.296Z,22.87
2018-06-02T22:43:50.607Z,22.67
2018-06-02T22:46:20.231Z,22.50
2018-06-02T22:48:49.572Z,22.45
2018-06-02T22:51:33.557Z,22.49
2018-06-02T22:54:02.992Z,22.59
2018-06-02T22:56:32.076Z,22.66
2018-06-02T22:59:01.476Z,22.74
2018-06-02T23:01:30.883Z,22.96
2018-06-02T23:04:00.328Z,22.65
2018-06-02T23:06:29.690Z,22.68
2018-06-02T23:08:59.059Z,22.63
2018-06-02T23:11:28.374Z,22.56
2018-06-02T23:13:58.036Z,22.62
2018-06-02T23:16:27.315Z,22.62
2018-06-02T23:18:56.605Z,22.42
2018-06-02T23:21:25.968Z,22.39
2018-06-02T23:23:55.269Z,22.41
2018-06-02T23:26:24.590Z,22.35
2018-06-02T23:28:53.908Z,22.30
2018-06-02T23:31:23.171Z,22.32
2018-06-02T23:33:52.483Z,22.32
2018-06-02T23:36:21.874Z,22.40
2018-06-02T23:38:51.207Z,22.57
2018-06-02T23:41:20.512Z,22.56
2018-06-02T23:43:49.843Z,22.57
2018-06-02T23:46:19.136Z,22.65
2018-06-02T23:48:48.403Z,22.64
2018-06-02T23:51:17.689Z,22.55
2018-06-02T23:53:46.967Z,22.61
2018-06-02T23:56:16.519Z,22.58
2018-06-02T23:58:46.070Z,22.56
